Topsail Beach, NC

4:16 AM EDT on April 29, 2017 (GMT -0400)
Topsail Beach Fire Dept | | Change Station

Elev 12 ft 34.37 °N, 77.63 °W | Updated 4 seconds ago

Overcast
Overcast
71.9 °F
Feels Like 71.9 °F
N
0.0
Wind Variable Wind from SW
Gusts 1.0 mph

Today
High -- | Low -- °F
--% Chance of Precip.
Yesterday
High -- | Low -- °F
Precip. -- in
Pressure 30.16 in
Visibility 10.0 miles
Clouds Mostly Cloudy 1500 ft
Overcast 2000 ft
Dew Point 72 °F
Humidity 100%
Rainfall 0.00 in
Snow Depth Not available.
6:22 AM 7:53 PM
Waxing Crescent, 12% visible
METAR KILM 290753Z 20010KT 10SM BKN015 OVC020 23/22 A3016 RMK AO2 SLP212 T02330222
Pressure 30.16 in
Visibility 10.0 miles
Clouds Mostly Cloudy 1500 ft
Overcast 2000 ft
Dew Point 72 °F
Humidity 100%
Rainfall 0.00 in
Snow Depth Not available.
6:22 AM 7:53 PM
Waxing Crescent, 12% visible
METAR KILM 290753Z 20010KT 10SM BKN015 OVC020 23/22 A3016 RMK AO2 SLP212 T02330222

Get Severe Weather Alerts

Thanks for signing up!

Be on the lookout for a verification email in your inbox.

You'll start receiving the daily forecast at 8 AM.

×

10-Day Weather Forecast

Almanac

Astronomy

Apr. 29, 2017 Rise Set
Actual Time
Civil Twilight
Nautical Twilight
Astronomical Twilight
Moon
Length of Visible Light
Length of Day
Tomorrow will be .
, % of the Moon is Illuminated

Today's Extremes

State Highs State Lows

Community

WunderPhotos

WunderBlog® & News

Nearby

Air Quality

  Air Quality AQ Index Pollutant
Not available.

Snow Depth

Station Depth Elevation

Earthquake Activity

City Distance Mag. Time & Date
Minimum magnitude displayed is 2.5.

Coastal Water Temperatures

Place Temperature

Stations

Nearby Weather Stations

Station Location Temp. Windchill Dew Point Humidity Wind Precip. Elev Updated Type
                   

Watches & Warnings

There are currently no watches in effect.